Time;durP1;ratioP1;P1;durP2;ratioP2;P2;SDS_P1;SDS_P2;PMS_P1;PMS_P2;Temp;Humidity;BMP_temperature;BMP_pressure;BME280_temperature;BME280_humidity;BME280_pressure;Samples;Min_cycle;Max_cycle;Signal;HPM_P1;HPM_P2
2022/10/01 00:00:04;;;;;;;10.70;4.40;;;21.10;99.90;;;;;;6184043;23;20012;-93
2022/10/01 03:02:38;;;;;;;9.05;3.50;;;20.00;99.90;;;;;;6227905;22;20024;-94
2022/10/01 03:05:11;;;;;;;12.05;2.80;;;20.00;99.90;;;;;;6166052;23;20049;-94
2022/10/01 03:40:40;;;;;;;10.52;3.85;;;20.20;99.90;;;;;;6265529;22;20059;-95
2022/10/01 03:48:32;;;;;;;10.45;3.78;;;20.30;99.90;;;;;;6214829;22;20166;-94
2022/10/01 06:49:21;;;;;;;5.45;2.78;;;22.00;99.90;;;;;;6249400;22;20059;-93
2022/10/01 06:54:35;;;;;;;6.82;3.25;;;22.10;99.90;;;;;;6245341;22;20036;-93
2022/10/01 06:57:02;;;;;;;4.97;2.80;;;22.20;99.90;;;;;;6201469;23;20435;-93
2022/10/01 06:59:29;;;;;;;8.98;3.20;;;22.30;99.90;;;;;;6222252;23;20028;-94
2022/10/01 07:01:55;;;;;;;6.90;2.53;;;22.40;99.90;;;;;;6198514;23;20005;-94
2022/10/01 07:04:22;;;;;;;5.85;2.60;;;22.30;99.90;;;;;;6218705;23;20458;-94
2022/10/01 07:06:51;;;;;;;5.75;2.25;;;22.10;99.90;;;;;;6220466;23;20054;-94
2022/10/01 07:09:18;;;;;;;5.63;2.75;;;22.00;99.90;;;;;;6169217;23;20021;-92
2022/10/01 07:11:44;;;;;;;8.85;2.75;;;21.90;99.90;;;;;;6217936;23;20005;-94
2022/10/01 07:34:31;;;;;;;6.20;2.58;;;22.70;99.90;;;;;;6252779;22;19968;-74
2022/10/01 07:36:58;;;;;;;4.82;2.30;;;22.60;99.90;;;;;;6280146;22;19999;-93
2022/10/01 07:39:25;;;;;;;8.90;2.65;;;22.60;99.90;;;;;;6227412;22;20456;-91
2022/10/01 07:41:51;;;;;;;5.18;2.70;;;22.60;99.90;;;;;;6227519;22;20004;-90
2022/10/01 07:44:19;;;;;;;6.90;2.90;;;22.60;99.90;;;;;;6228799;22;20014;-86
2022/10/01 07:46:47;;;;;;;6.90;3.42;;;23.00;99.90;;;;;;6228790;22;20031;-86
2022/10/01 07:49:15;;;;;;;12.63;3.30;;;23.40;99.90;;;;;;6228562;22;20015;-86
2022/10/01 07:51:43;;;;;;;7.72;3.50;;;23.50;99.90;;;;;;6228910;22;20378;-86
2022/10/01 07:54:10;;;;;;;6.20;2.90;;;23.40;99.90;;;;;;6227355;22;20094;-87
2022/10/01 07:56:43;;;;;;;8.15;2.38;;;23.00;99.90;;;;;;6226907;22;20007;-91
2022/10/01 08:01:38;;;;;;;6.82;2.30;;;22.50;99.90;;;;;;6252153;22;20339;-85
2022/10/01 08:07:14;;;;;;;6.57;1.80;;;22.50;99.90;;;;;;6131385;23;20034;-93
2022/10/01 08:09:41;;;;;;;2.70;2.20;;;22.50;99.90;;;;;;6203576;23;20008;-93
2022/10/01 08:12:11;;;;;;;7.57;2.50;;;22.70;99.90;;;;;;6202674;22;20062;-87
2022/10/01 08:14:39;;;;;;;8.18;2.40;;;23.00;99.90;;;;;;6250330;23;20005;-78
2022/10/01 08:17:05;;;;;;;5.70;2.10;;;23.10;99.90;;;;;;6223234;23;20014;-79
2022/10/01 08:19:33;;;;;;;4.75;2.00;;;23.10;99.90;;;;;;6198149;23;20092;-79
2022/10/01 08:21:59;;;;;;;6.63;2.30;;;23.30;99.90;;;;;;6249348;22;20001;-80
2022/10/01 08:24:26;;;;;;;4.43;2.53;;;23.40;99.90;;;;;;6249865;23;20430;-80
2022/10/01 08:26:55;;;;;;;3.78;2.45;;;23.50;99.90;;;;;;6250873;23;20007;-92
2022/10/01 08:29:25;;;;;;;8.77;2.58;;;23.60;99.90;;;;;;6199312;23;20023;-93
2022/10/01 08:31:52;;;;;;;8.80;2.50;;;23.30;99.90;;;;;;6199733;23;20007;-92
2022/10/01 08:34:19;;;;;;;8.00;2.60;;;23.20;99.90;;;;;;6199545;23;20004;-92
2022/10/01 08:36:52;;;;;;;4.97;2.92;;;23.60;99.90;;;;;;6199694;23;20057;-92
2022/10/01 08:39:19;;;;;;;13.30;4.85;;;24.30;99.90;;;;;;6199611;23;20004;-91
2022/10/01 08:42:49;;;;;;;12.30;4.55;;;24.70;99.90;;;;;;6198136;23;20504;-90
2022/10/01 08:45:44;;;;;;;10.65;4.05;;;25.10;99.90;;;;;;6221134;23;20019;-92
2022/10/01 08:48:29;;;;;;;8.35;4.68;;;25.30;99.90;;;;;;6196352;23;20082;-91
2022/10/01 08:51:18;;;;;;;9.57;5.25;;;25.50;99.90;;;;;;6196582;23;20430;-92
2022/10/01 09:03:19;;;;;;;9.55;6.30;;;25.80;99.90;;;;;;6227597;22;20075;31
2022/10/01 18:46:51;;;;;;;9.73;4.50;;;23.30;99.90;;;;;;6231343;22;20051;-90
2022/10/01 18:49:29;;;;;;;20.33;5.40;;;23.20;99.90;;;;;;6215925;23;20055;-93
2022/10/01 18:52:18;;;;;;;25.65;10.73;;;23.20;99.90;;;;;;6219895;23;20008;-90
2022/10/01 18:55:07;;;;;;;39.05;18.52;;;23.20;99.90;;;;;;6221078;23;20008;-93
2022/10/01 18:57:48;;;;;;;26.55;9.52;;;23.20;99.90;;;;;;6215314;23;20444;-91
2022/10/01 19:00:20;;;;;;;26.15;10.90;;;23.10;99.90;;;;;;6190657;23;20012;-91
2022/10/01 19:03:11;;;;;;;43.65;17.00;;;23.10;99.90;;;;;;6192196;23;20036;-93
2022/10/01 19:05:59;;;;;;;20.63;8.02;;;23.00;99.90;;;;;;6192231;23;20008;-92
2022/10/01 19:08:48;;;;;;;20.40;8.15;;;23.00;99.90;;;;;;6192238;23;20096;-92
2022/10/01 19:11:41;;;;;;;30.70;15.10;;;23.00;99.90;;;;;;6192595;23;20005;-93
2022/10/01 19:14:39;;;;;;;15.27;5.95;;;23.00;99.90;;;;;;6192120;23;20016;-93
2022/10/01 19:17:15;;;;;;;22.83;4.97;;;22.90;99.90;;;;;;6192302;23;20015;-94
2022/10/01 19:19:56;;;;;;;13.85;4.82;;;22.90;99.90;;;;;;6192202;23;20083;-94
2022/10/01 19:22:50;;;;;;;16.38;4.55;;;22.90;99.90;;;;;;6192201;23;20504;-92
2022/10/01 19:25:19;;;;;;;14.95;4.55;;;22.90;99.90;;;;;;6191971;23;20087;-92
2022/10/01 19:28:20;;;;;;;17.23;5.40;;;22.90;99.90;;;;;;6191931;23;20040;-94
2022/10/01 19:31:01;;;;;;;8.18;4.30;;;22.90;99.90;;;;;;6192178;23;20418;-92
2022/10/01 19:33:31;;;;;;;9.50;4.32;;;22.80;99.90;;;;;;6192106;23;20017;-93
2022/10/01 19:36:01;;;;;;;12.30;4.93;;;22.90;99.90;;;;;;6192569;23;20027;-94
2022/10/01 19:38:38;;;;;;;11.63;4.65;;;22.80;99.90;;;;;;6192071;23;20012;-93
2022/10/01 19:41:20;;;;;;;13.27;5.50;;;22.80;99.90;;;;;;6191983;23;20005;-94
2022/10/01 19:43:52;;;;;;;12.15;5.18;;;22.80;99.90;;;;;;6191801;23;20012;-94
2022/10/01 19:46:44;;;;;;;12.07;6.03;;;22.80;99.90;;;;;;6191549;23;20012;-91
2022/10/01 19:49:30;;;;;;;9.98;6.38;;;22.90;99.90;;;;;;6191670;23;20525;-94
2022/10/01 19:52:00;;;;;;;7.88;5.60;;;22.90;99.90;;;;;;6216830;23;20009;-93
2022/10/01 19:54:31;;;;;;;10.18;5.40;;;23.00;99.90;;;;;;6191965;23;20013;-92
2022/10/01 19:57:17;;;;;;;6.70;5.00;;;23.00;99.90;;;;;;6191909;23;20012;-89
2022/10/01 19:59:43;;;;;;;7.03;4.80;;;22.90;99.90;;;;;;6192007;23;20418;-93
2022/10/01 20:02:47;;;;;;;9.52;5.35;;;22.90;99.90;;;;;;6192062;23;20016;-94
2022/10/01 20:05:34;;;;;;;8.05;4.38;;;22.80;99.90;;;;;;6193983;23;20054;-92
2022/10/01 20:08:18;;;;;;;8.77;4.30;;;22.70;99.90;;;;;;6148916;23;20017;-91
2022/10/01 20:10:56;;;;;;;10.48;4.80;;;22.60;99.90;;;;;;6192385;23;20460;-92
2022/10/01 20:13:42;;;;;;;6.15;4.90;;;22.50;99.90;;;;;;6192050;23;20013;-92
2022/10/01 20:16:27;;;;;;;10.15;5.30;;;22.50;99.90;;;;;;6191766;23;20063;-94
2022/10/01 20:19:04;;;;;;;7.45;5.57;;;22.40;99.90;;;;;;6191904;23;20017;-93
2022/10/01 20:21:42;;;;;;;6.80;6.20;;;22.40;99.90;;;;;;6191357;23;20031;-93
2022/10/01 20:24:09;;;;;;;10.23;8.43;;;22.30;99.90;;;;;;6191622;23;20012;-93
2022/10/01 20:26:45;;;;;;;10.25;9.60;;;22.20;99.90;;;;;;6191215;23;20000;-93
2022/10/01 20:29:31;;;;;;;12.38;11.68;;;22.20;99.90;;;;;;6191399;23;20103;-93
2022/10/01 20:31:57;;;;;;;13.35;12.75;;;22.10;99.90;;;;;;6191341;23;20008;-93
2022/10/01 20:34:45;;;;;;;13.27;12.57;;;22.10;99.90;;;;;;6191561;23;20054;-93
2022/10/01 20:37:33;;;;;;;13.68;13.00;;;22.00;99.90;;;;;;6191739;23;20450;-93
2022/10/01 20:40:17;;;;;;;13.80;13.10;;;22.00;99.90;;;;;;6191809;23;20078;-91
2022/10/01 20:42:47;;;;;;;14.40;13.60;;;21.90;99.90;;;;;;6191678;23;20401;-92
2022/10/01 20:45:21;;;;;;;14.20;13.40;;;21.90;99.90;;;;;;6191286;23;20036;-93
2022/10/01 20:47:53;;;;;;;;;;;21.80;99.90;;;;;;6191641;23;20019;-93
2022/10/01 20:50:33;;;;;;;13.93;13.23;;;21.70;99.90;;;;;;6191222;23;19914;-92
2022/10/01 20:53:08;;;;;;;14.30;13.38;;;21.60;99.90;;;;;;6192087;23;20101;-94
2022/10/01 20:55:40;;;;;;;13.88;13.18;;;21.50;99.90;;;;;;6191489;23;20015;-93
2022/10/01 20:58:32;;;;;;;13.88;13.18;;;21.40;99.90;;;;;;6191491;23;20032;-91
2022/10/01 21:01:06;;;;;;;14.15;13.35;;;21.30;99.90;;;;;;6191180;23;20012;-92
2022/10/01 21:03:39;;;;;;;13.85;13.02;;;21.20;99.90;;;;;;6191350;23;20012;-93
2022/10/01 21:06:13;;;;;;;14.20;13.40;;;21.20;99.90;;;;;;6191036;23;20442;-93
2022/10/01 21:08:51;;;;;;;14.27;13.40;;;21.10;99.90;;;;;;6190927;23;20025;-92
2022/10/01 21:11:25;;;;;;;13.40;12.70;;;21.10;99.90;;;;;;6191126;23;20235;-90
2022/10/01 21:14:16;;;;;;;14.73;13.93;;;21.00;99.90;;;;;;6191198;23;20009;-91
2022/10/01 21:16:55;;;;;;;14.70;13.55;;;20.90;99.90;;;;;;6191399;23;20079;-90
2022/10/01 21:19:47;;;;;;;14.50;13.70;;;20.80;99.90;;;;;;6191562;23;20076;-91
2022/10/01 21:22:39;;;;;;;15.02;14.02;;;20.70;99.90;;;;;;6191197;23;20342;-93
2022/10/01 21:25:38;;;;;;;15.82;14.60;;;20.70;99.90;;;;;;6190887;23;20009;-90
2022/10/01 21:28:26;;;;;;;14.20;13.45;;;20.60;99.90;;;;;;6190801;23;20018;-90
2022/10/01 21:31:28;;;;;;;14.27;13.55;;;20.60;99.90;;;;;;6191161;23;20008;-91
2022/10/01 21:34:02;;;;;;;14.25;13.65;;;20.50;99.90;;;;;;6186804;23;20008;-91
2022/10/01 21:36:37;;;;;;;14.73;13.88;;;20.50;99.90;;;;;;6191024;23;20041;-90
2022/10/01 21:39:40;;;;;;;14.82;13.70;;;20.40;99.90;;;;;;6190990;23;20011;-91
2022/10/01 21:42:41;;;;;;;14.88;14.00;;;20.40;99.90;;;;;;6190782;23;20015;-89
2022/10/01 21:45:30;;;;;;;14.88;14.10;;;20.30;99.90;;;;;;6190666;23;20011;-91
2022/10/01 21:48:28;;;;;;;15.10;14.20;;;20.30;99.90;;;;;;6190211;23;20016;-91
2022/10/01 21:51:38;;;;;;;14.88;13.80;;;20.30;99.90;;;;;;6190581;23;20005;-91
2022/10/01 21:54:22;;;;;;;15.70;14.35;;;20.30;99.90;;;;;;6190702;23;20095;-89
2022/10/01 21:56:53;;;;;;;15.82;14.60;;;20.20;99.90;;;;;;6191313;23;20015;-91
2022/10/01 21:59:49;;;;;;;14.70;13.70;;;20.20;99.90;;;;;;6190840;23;20009;-91
2022/10/01 22:02:34;;;;;;;14.60;13.80;;;20.20;99.90;;;;;;6172034;23;20066;-92
2022/10/01 22:05:28;;;;;;;14.98;13.85;;;20.10;99.90;;;;;;6190470;23;20009;-92
2022/10/01 22:08:13;;;;;;;15.15;13.90;;;20.10;99.90;;;;;;6190370;23;20529;-92
2022/10/01 22:10:46;;;;;;;14.50;13.48;;;20.10;99.90;;;;;;6194240;23;20024;-93
